CES274 ZSYT-ZYTL
Flight info
| Callsign | CES274 |
|---|---|
| Flight time | N/A |
| Altitude | 14800 |
| Route | IGD81D IGDEG W173 NIXEP NIX07A |
| Aircraft | A20N/M-SDE2E3FGHIRWXY/LB1 |
Departure
| Time | 2026-05-05 04:09 |
|---|---|
| Airport | Yantai Penglai International Airport (ZSYT) |
Arrival
| Time | N/A |
|---|---|
| Airport | Dalian Zhoushuizi International Airport (ZYTL) |
| Time | Latitude | Longitude | Altitude | Speed | Heading |
|---|---|---|---|---|---|
| 2026-05-05 03:38 | 37.66513 | 120.98964 | 192 ft | 0 kts | 312° |
| 2026-05-05 03:45 | 37.66512 | 120.98964 | 192 ft | 1 kts | 312° |
| 2026-05-05 03:45 | 37.66503 | 120.98977 | 206 ft | 1 kts | 312° |
| 2026-05-05 03:45 | 37.66491 | 120.98993 | 203 ft | 1 kts | 326° |
| 2026-05-05 03:46 | 37.66481 | 120.99001 | 205 ft | 2 kts | 338° |
| 2026-05-05 03:46 | 37.66467 | 120.99007 | 204 ft | 1 kts | 353° |
| 2026-05-05 03:46 | 37.66446 | 120.99007 | 197 ft | 1 kts | 15° |
| 2026-05-05 03:46 | 37.66436 | 120.99003 | 202 ft | 1 kts | 31° |
| 2026-05-05 03:47 | 37.66427 | 120.98995 | 196 ft | 0 kts | 44° |
| 2026-05-05 03:48 | 37.66410 | 120.98974 | 203 ft | 4 kts | 47° |
| 2026-05-05 03:49 | 37.66392 | 120.98950 | 203 ft | 4 kts | 43° |
| 2026-05-05 03:49 | 37.66382 | 120.98938 | 205 ft | 0 kts | 41° |
| 2026-05-05 03:52 | 37.66384 | 120.98940 | 206 ft | 2 kts | 41° |
| 2026-05-05 03:52 | 37.66410 | 120.98968 | 204 ft | 8 kts | 41° |
| 2026-05-05 03:53 | 37.66446 | 120.99012 | 194 ft | 7 kts | 43° |
| 2026-05-05 03:53 | 37.66450 | 120.99016 | 196 ft | 0 kts | 43° |
| 2026-05-05 03:55 | 37.66453 | 120.99020 | 197 ft | 2 kts | 43° |
| 2026-05-05 03:55 | 37.66477 | 120.99048 | 196 ft | 7 kts | 43° |
| 2026-05-05 03:55 | 37.66518 | 120.99071 | 202 ft | 6 kts | 344° |
| 2026-05-05 03:56 | 37.66557 | 120.99028 | 195 ft | 9 kts | 311° |
| 2026-05-05 03:56 | 37.66591 | 120.98961 | 200 ft | 8 kts | 272° |
| 2026-05-05 03:56 | 37.66584 | 120.98938 | 201 ft | 1 kts | 233° |
| 2026-05-05 03:56 | 37.66569 | 120.98919 | 195 ft | 5 kts | 222° |
| 2026-05-05 03:57 | 37.66528 | 120.98865 | 202 ft | 12 kts | 235° |
| 2026-05-05 03:57 | 37.66530 | 120.98751 | 203 ft | 16 kts | 240° |
| 2026-05-05 03:57 | 37.66434 | 120.98636 | 197 ft | 22 kts | 224° |
| 2026-05-05 03:57 | 37.66307 | 120.98488 | 205 ft | 27 kts | 222° |
| 2026-05-05 03:58 | 37.66155 | 120.98314 | 203 ft | 31 kts | 222° |
| 2026-05-05 03:58 | 37.65984 | 120.98123 | 200 ft | 33 kts | 222° |
| 2026-05-05 03:58 | 37.65826 | 120.97941 | 204 ft | 31 kts | 221° |
| 2026-05-05 03:58 | 37.65662 | 120.97757 | 201 ft | 32 kts | 217° |
| 2026-05-05 03:59 | 37.65495 | 120.97572 | 199 ft | 32 kts | 222° |
| 2026-05-05 03:59 | 37.65333 | 120.97385 | 208 ft | 26 kts | 223° |
| 2026-05-05 03:59 | 37.65295 | 120.97340 | 197 ft | 1 kts | 223° |
| 2026-05-05 03:59 | 37.65289 | 120.97333 | 196 ft | 0 kts | 223° |
| 2026-05-05 04:00 | 37.65286 | 120.97330 | 195 ft | 2 kts | 223° |
| 2026-05-05 04:00 | 37.65266 | 120.97306 | 197 ft | 6 kts | 223° |
| 2026-05-05 04:00 | 37.65227 | 120.97260 | 199 ft | 9 kts | 224° |
| 2026-05-05 04:01 | 37.65174 | 120.97199 | 196 ft | 11 kts | 220° |
| 2026-05-05 04:01 | 37.65113 | 120.97128 | 204 ft | 13 kts | 224° |
| 2026-05-05 04:01 | 37.65039 | 120.97041 | 208 ft | 16 kts | 222° |
| 2026-05-05 04:01 | 37.64950 | 120.96937 | 197 ft | 18 kts | 223° |
| 2026-05-05 04:02 | 37.64849 | 120.96823 | 205 ft | 20 kts | 221° |
| 2026-05-05 04:02 | 37.64776 | 120.96737 | 193 ft | 0 kts | 254° |
| 2026-05-05 04:02 | 37.64774 | 120.96724 | 195 ft | 3 kts | 256° |
| 2026-05-05 04:02 | 37.64772 | 120.96712 | 206 ft | 0 kts | 264° |
| 2026-05-05 04:04 | 37.64772 | 120.96709 | 206 ft | 2 kts | 264° |
| 2026-05-05 04:05 | 37.64783 | 120.96677 | 198 ft | 6 kts | 311° |
| 2026-05-05 04:05 | 37.64796 | 120.96658 | 203 ft | 5 kts | 310° |
| 2026-05-05 04:05 | 37.64827 | 120.96611 | 198 ft | 7 kts | 310° |
| 2026-05-05 04:05 | 37.64856 | 120.96568 | 209 ft | 0 kts | 314° |
| 2026-05-05 04:06 | 37.64851 | 120.96578 | 200 ft | 1 kts | 331° |
| 2026-05-05 04:06 | 37.64867 | 120.96588 | 203 ft | 0 kts | 50° |
| 2026-05-05 04:06 | 37.64874 | 120.96598 | 199 ft | 0 kts | 44° |
| 2026-05-05 04:08 | 37.64947 | 120.96684 | 199 ft | 51 kts | 42° |
| 2026-05-05 04:08 | 37.65440 | 120.97245 | 206 ft | 133 kts | 42° |
| 2026-05-05 04:09 | 37.66285 | 120.98204 | 353 ft | 181 kts | 41° |
| 2026-05-05 04:09 | 37.67426 | 120.98822 | 1164 ft | 187 kts | 356° |
| 2026-05-05 04:09 | 37.68773 | 120.98605 | 1550 ft | 193 kts | 354° |
| 2026-05-05 04:09 | 37.69621 | 120.98392 | 1509 ft | 185 kts | 343° |
| 2026-05-05 04:10 | 37.70798 | 120.97804 | 1514 ft | 182 kts | 332° |
| 2026-05-05 04:10 | 37.71960 | 120.96362 | 1499 ft | 173 kts | 291° |
| 2026-05-05 04:10 | 37.72037 | 120.94862 | 1519 ft | 175 kts | 259° |
| 2026-05-05 04:10 | 37.71841 | 120.93883 | 1501 ft | 174 kts | 249° |
| 2026-05-05 04:11 | 37.71582 | 120.93288 | 1501 ft | 172 kts | 230° |
| 2026-05-05 04:11 | 37.71270 | 120.92877 | 1513 ft | 167 kts | 223° |
| 2026-05-05 04:11 | 37.70940 | 120.92500 | 1502 ft | 165 kts | 221° |
| 2026-05-05 04:12 | 37.70699 | 120.92227 | 1501 ft | 163 kts | 221° |
| 2026-05-05 04:12 | 37.69867 | 120.91283 | 1507 ft | 163 kts | 222° |
| 2026-05-05 04:12 | 37.69034 | 120.90337 | 1506 ft | 162 kts | 222° |
| 2026-05-05 04:13 | 37.68212 | 120.89404 | 1507 ft | 162 kts | 222° |
| 2026-05-05 04:13 | 37.67374 | 120.88452 | 1508 ft | 153 kts | 222° |
| 2026-05-05 04:13 | 37.66612 | 120.87586 | 1521 ft | 147 kts | 222° |
| 2026-05-05 04:13 | 37.65817 | 120.86684 | 1513 ft | 146 kts | 222° |
| 2026-05-05 04:14 | 37.65077 | 120.85844 | 1509 ft | 147 kts | 222° |
| 2026-05-05 04:14 | 37.64305 | 120.84967 | 1507 ft | 147 kts | 222° |
| 2026-05-05 04:14 | 37.63550 | 120.84111 | 1507 ft | 147 kts | 222° |
| 2026-05-05 04:14 | 37.62774 | 120.83229 | 1507 ft | 147 kts | 222° |
| 2026-05-05 04:15 | 37.62012 | 120.82363 | 1506 ft | 147 kts | 222° |
| 2026-05-05 04:15 | 37.61247 | 120.81495 | 1507 ft | 147 kts | 222° |
| 2026-05-05 04:15 | 37.60496 | 120.80643 | 1508 ft | 147 kts | 222° |
| 2026-05-05 04:15 | 37.59737 | 120.79788 | 1509 ft | 147 kts | 219° |
| 2026-05-05 04:16 | 37.58795 | 120.79307 | 1508 ft | 147 kts | 176° |
| 2026-05-05 04:16 | 37.57885 | 120.79851 | 1517 ft | 147 kts | 133° |
| 2026-05-05 04:16 | 37.57200 | 120.80815 | 1507 ft | 147 kts | 131° |
| 2026-05-05 04:16 | 37.56543 | 120.81763 | 1504 ft | 141 kts | 129° |
| 2026-05-05 04:17 | 37.56165 | 120.82869 | 1568 ft | 141 kts | 91° |
| 2026-05-05 04:17 | 37.56503 | 120.83995 | 1641 ft | 142 kts | 53° |
| 2026-05-05 04:17 | 37.56822 | 120.85162 | 1576 ft | 140 kts | 74° |
| 2026-05-05 04:17 | 37.57227 | 120.86286 | 1521 ft | 140 kts | 59° |
| 2026-05-05 04:18 | 37.57727 | 120.87349 | 1555 ft | 141 kts | 60° |
| 2026-05-05 04:18 | 37.58225 | 120.88401 | 1523 ft | 142 kts | 57° |
| 2026-05-05 04:18 | 37.58973 | 120.89774 | 1528 ft | 148 kts | 50° |
| 2026-05-05 04:18 | 37.59713 | 120.90681 | 1479 ft | 148 kts | 38° |
| 2026-05-05 04:19 | 37.60492 | 120.91538 | 1405 ft | 150 kts | 43° |
| 2026-05-05 04:19 | 37.61253 | 120.92429 | 1200 ft | 148 kts | 41° |
| 2026-05-05 04:19 | 37.62017 | 120.93279 | 999 ft | 147 kts | 43° |
| 2026-05-05 04:19 | 37.62743 | 120.94192 | 772 ft | 146 kts | 43° |
| 2026-05-05 04:20 | 37.63505 | 120.95044 | 617 ft | 149 kts | 40° |
| 2026-05-05 04:20 | 37.64293 | 120.95908 | 420 ft | 149 kts | 41° |
| 2026-05-05 04:20 | 37.65061 | 120.96776 | 222 ft | 147 kts | 41° |
| 2026-05-05 04:20 | 37.65749 | 120.97567 | 208 ft | 108 kts | 43° |
| 2026-05-05 04:21 | 37.66156 | 120.98036 | 210 ft | 50 kts | 43° |
| 2026-05-05 04:21 | 37.66305 | 120.98207 | 205 ft | 21 kts | 43° |
| 2026-05-05 04:21 | 37.66407 | 120.98361 | 199 ft | 24 kts | 71° |
| 2026-05-05 04:21 | 37.66459 | 120.98571 | 194 ft | 26 kts | 70° |
| 2026-05-05 04:22 | 37.66544 | 120.98770 | 196 ft | 26 kts | 45° |
| 2026-05-05 04:22 | 37.66675 | 120.98918 | 197 ft | 21 kts | 42° |
| 2026-05-05 04:22 | 37.66730 | 120.98981 | 202 ft | 10 kts | 42° |
| 2026-05-05 04:22 | 37.66788 | 120.99046 | 204 ft | 12 kts | 41° |
| 2026-05-05 04:23 | 37.66817 | 120.99080 | 208 ft | 3 kts | 42° |
| 2026-05-05 04:23 | 37.66830 | 120.99094 | 199 ft | 0 kts | 41° |
| 2026-05-05 04:24 | 37.66829 | 120.99094 | 199 ft | 0 kts | 41° |
| 2026-05-05 04:24 | 37.66805 | 120.99067 | 197 ft | 7 kts | 41° |
| 2026-05-05 04:24 | 37.66757 | 120.99013 | 199 ft | 10 kts | 41° |
| 2026-05-05 04:25 | 37.66666 | 120.98912 | 193 ft | 0 kts | 41° |
| 2026-05-05 04:29 | 37.66675 | 120.98921 | 197 ft | 5 kts | 41° |
| 2026-05-05 04:29 | 37.66723 | 120.98974 | 205 ft | 13 kts | 40° |
| 2026-05-05 04:30 | 37.66777 | 120.99034 | 205 ft | 17 kts | 40° |
| 2026-05-05 04:30 | 37.66876 | 120.99151 | 197 ft | 10 kts | 53° |
| 2026-05-05 04:30 | 37.66874 | 120.99242 | 196 ft | 11 kts | 86° |
| 2026-05-05 04:30 | 37.66902 | 120.99301 | 204 ft | 6 kts | 37° |
| 2026-05-05 04:31 | 37.66903 | 120.99302 | 204 ft | 0 kts | 37° |